CheckWX is a tool to help pilots better visualize weather data.  It is not intended as a substitute for an official pre-flight weather briefing.

03:12:52 UTC

KAFP METAR
Anson County - Jeff Cloud Field Airport
Wadesboro, North Carolina, USA
Current

33 mins ago

KAFP 260240Z AUTO 15007KT 10SM CLR 27/23 A3009 RMK AO2 T02730227
Observed
May-26 @ 02:40 UTC
Wind
  • 150° at 7 KTS
Visibility
10 SM
Flight Rules
VFR
Cloud Levels
  • Clear skies
Temperature
27°C / 81°F
Dewpoint
23°C / 73°F
Heat Index
30°C / 86°F
Humidity
79%
Altimeter
30.09" Hg
Pressure
1018.92 hPa
Previous

53 mins ago

KAFP 260220Z AUTO 15007KT 10SM CLR 28/23 A3009 RMK AO2 T02750228
Observed
May-26 @ 02:20 UTC
Wind
  • 150° at 7 KTS
Visibility
10 SM
Flight Rules
VFR
Cloud Levels
  • Clear skies
Temperature
28°C / 82°F
Dewpoint
23°C / 73°F
Heat Index
31°C / 87°F
Humidity
74%
Altimeter
30.09" Hg
Pressure
1018.92 hPa
Previous

1 hour ago

KAFP 260200Z AUTO 15006KT 10SM CLR 28/23 A3008 RMK AO2 T02760228
Observed
May-26 @ 02:00 UTC
Wind
  • 150° at 6 KTS
Visibility
10 SM
Flight Rules
VFR
Cloud Levels
  • Clear skies
Temperature
28°C / 82°F
Dewpoint
23°C / 73°F
Heat Index
31°C / 87°F
Humidity
74%
Altimeter
30.08" Hg
Pressure
1018.62 hPa